PWSweather.com
Personal Weather Stations
Station Observations
ILOMBARD30
LodiIT 26900

LodiIT 26900

Lat: 45.2993, Lon: 9.5207

Elevation: 255

Station Type: Davis Vantege Pro2 Plus 24h

http://www.meteo-iw2gob.it

High Low Average
Temperature 61.7°F16.5°C 45.0°F7.2°C 52.1°F11.2°C
Dew Point 48.4°F9.1°C 28.3°F-2.1°C 40.2°F4.6°C
Winds 13.8 mph 22.2 kmh Calm Calm 4.0 mph S6.4 kmh S
Wind Gusts 16.1 mph25.9 kmh -- 6.0 mph9.7 kmh
Humidity 92% 29% 68%
Pressure 30.11 in1019.6 mb 29.75 in1007.5 mb -
Precipitation 0.28 in7.1 mm - -
Hour Temp Dew Point Humidity Winds Wind Gusts Pressure Precip Precip Rate Daily Precip Total
12:00 AM 53.3°F11.8°C 47.3°F8.5°C 80% 1.2 mph ESE1.9 kmh ESE 1.2 mph1.9 kmh 29.77 in1008.1 mb - 0.00 in0.0 mm 0.00 in0.0 mm
12:05 AM 53.2°F11.8°C 47.2°F8.4°C 80% 1.2 mph ESE1.9 kmh ESE 3.5 mph5.6 kmh 29.77 in1008.1 mb - 0.00 in0.0 mm 0.00 in0.0 mm
12:10 AM 53.2°F11.8°C 47.2°F8.4°C 80% 1.2 mph ESE1.9 kmh ESE 2.3 mph3.7 kmh 29.77 in1008.1 mb - 0.00 in0.0 mm 0.00 in0.0 mm
12:15 AM 53.2°F11.8°C 47.2°F8.4°C 80% Calm Calm 1.2 mph1.9 kmh 29.76 in1007.8 mb - 0.00 in0.0 mm 0.00 in0.0 mm
12:20 AM 53.2°F11.8°C 47.2°F8.4°C 80% Calm Calm -- 29.76 in1007.8 mb - 0.00 in0.0 mm 0.00 in0.0 mm
12:25 AM 53.3°F11.8°C 47.3°F8.5°C 80% Calm Calm -- 29.76 in1007.8 mb - 0.00 in0.0 mm 0.00 in0.0 mm
12:30 AM 53.3°F11.8°C 47.3°F8.5°C 80% Calm Calm -- 29.76 in1007.8 mb - 0.00 in0.0 mm 0.00 in0.0 mm
12:35 AM 53.2°F11.8°C 47.2°F8.4°C 80% Calm Calm 1.2 mph1.9 kmh 29.76 in1007.8 mb - 0.00 in0.0 mm 0.00 in0.0 mm
12:40 AM 53.2°F11.8°C 47.2°F8.4°C 80% Calm Calm -- 29.76 in1007.8 mb - 0.00 in0.0 mm 0.00 in0.0 mm
12:45 AM 53.1°F11.7°C 47.1°F8.4°C 80% 2.3 mph ESE3.7 kmh ESE 2.3 mph3.7 kmh 29.76 in1007.8 mb - 0.00 in0.0 mm 0.00 in0.0 mm
12:50 AM 53.1°F11.7°C 47.1°F8.4°C 80% 1.2 mph ESE1.9 kmh ESE 2.3 mph3.7 kmh 29.75 in1007.5 mb - 0.00 in0.0 mm 0.00 in0.0 mm
12:55 AM 53.0°F11.7°C 47.0°F8.3°C 80% 1.2 mph ESE1.9 kmh ESE 2.3 mph3.7 kmh 29.76 in1007.8 mb - 0.00 in0.0 mm 0.00 in0.0 mm
01:00 AM 52.9°F11.6°C 46.9°F8.3°C 80% 1.2 mph ESE1.9 kmh ESE 1.2 mph1.9 kmh 29.76 in1007.8 mb - 0.00 in0.0 mm 0.00 in0.0 mm
01:05 AM 52.9°F11.6°C 47.2°F8.4°C 81% 1.2 mph ESE1.9 kmh ESE 2.3 mph3.7 kmh 29.76 in1007.8 mb - 0.00 in0.0 mm 0.00 in0.0 mm
01:10 AM 52.9°F11.6°C 47.2°F8.4°C 81% 1.2 mph ESE1.9 kmh ESE 2.3 mph3.7 kmh 29.76 in1007.8 mb - 0.00 in0.0 mm 0.00 in0.0 mm
01:15 AM 52.9°F11.6°C 47.2°F8.4°C 81% Calm Calm -- 29.76 in1007.8 mb - 0.00 in0.0 mm 0.00 in0.0 mm
01:20 AM 53.0°F11.7°C 47.3°F8.5°C 81% 1.2 mph ESE1.9 kmh ESE 2.3 mph3.7 kmh 29.75 in1007.5 mb - 0.00 in0.0 mm 0.00 in0.0 mm
01:25 AM 53.0°F11.7°C 47.3°F8.5°C 81% 1.2 mph ESE1.9 kmh ESE 3.5 mph5.6 kmh 29.76 in1007.8 mb - 0.00 in0.0 mm 0.00 in0.0 mm
01:30 AM 53.1°F11.7°C 47.5°F8.6°C 81% 1.2 mph SE1.9 kmh SE 2.3 mph3.7 kmh 29.76 in1007.8 mb - 0.00 in0.0 mm 0.00 in0.0 mm
01:35 AM 53.3°F11.8°C 47.6°F8.7°C 81% 1.2 mph SE1.9 kmh SE 2.3 mph3.7 kmh 29.76 in1007.8 mb - 0.00 in0.0 mm 0.00 in0.0 mm
01:40 AM 53.3°F11.8°C 47.9°F8.8°C 82% 2.3 mph WSW3.7 kmh WSW 3.5 mph5.6 kmh 29.75 in1007.5 mb - 0.00 in0.0 mm 0.00 in0.0 mm
01:45 AM 53.3°F11.8°C 48.3°F9.1°C 83% 2.3 mph WSW3.7 kmh WSW 3.5 mph5.6 kmh 29.75 in1007.5 mb - 0.01 in0.3 mm 0.01 in0.3 mm
01:50 AM 53.1°F11.7°C 48.4°F9.1°C 84% 3.5 mph WSW5.6 kmh WSW 4.6 mph7.4 kmh 29.75 in1007.5 mb - 0.01 in0.3 mm 0.01 in0.3 mm
01:55 AM 52.7°F11.5°C 48.0°F8.9°C 84% 3.5 mph WSW5.6 kmh WSW 3.5 mph5.6 kmh 29.75 in1007.5 mb - 0.00 in0.0 mm 0.01 in0.3 mm
02:00 AM 52.3°F11.3°C 47.9°F8.8°C 85% 3.5 mph WSW5.6 kmh WSW 4.6 mph7.4 kmh 29.75 in1007.5 mb - 0.01 in0.3 mm 0.02 in0.5 mm
02:05 AM 52.0°F11.1°C 48.0°F8.9°C 86% 4.6 mph W7.4 kmh W 4.6 mph7.4 kmh 29.75 in1007.5 mb - 0.01 in0.3 mm 0.02 in0.5 mm
02:10 AM 51.7°F10.9°C 48.0°F8.9°C 87% 4.6 mph WNW7.4 kmh WNW 5.8 mph9.3 kmh 29.75 in1007.5 mb - 0.01 in0.3 mm 0.03 in0.8 mm
02:15 AM 51.5°F10.8°C 48.1°F8.9°C 88% 4.6 mph NW7.4 kmh NW 5.8 mph9.3 kmh 29.75 in1007.5 mb - 0.00 in0.0 mm 0.03 in0.8 mm
02:20 AM 51.3°F10.7°C 47.8°F8.8°C 88% 13.8 mph NW22.2 kmh NW 16.1 mph25.9 kmh 29.76 in1007.8 mb - 0.01 in0.3 mm 0.04 in1.0 mm
02:25 AM 50.4°F10.2°C 46.6°F8.1°C 87% 9.2 mph NW14.8 kmh NW 13.8 mph22.2 kmh 29.76 in1007.8 mb - 0.00 in0.0 mm 0.04 in1.0 mm
02:30 AM 49.7°F9.8°C 46.0°F7.8°C 87% 8.1 mph NW13.0 kmh NW 13.8 mph22.2 kmh 29.77 in1008.1 mb - 0.00 in0.0 mm 0.04 in1.0 mm
02:35 AM 49.0°F9.4°C 45.3°F7.4°C 87% 11.5 mph NW18.5 kmh NW 15.0 mph24.1 kmh 29.76 in1007.8 mb - 0.00 in0.0 mm 0.04 in1.0 mm
02:40 AM 48.7°F9.3°C 45.3°F7.4°C 88% 10.4 mph NW16.7 kmh NW 15.0 mph24.1 kmh 29.76 in1007.8 mb - 0.00 in0.0 mm 0.04 in1.0 mm
02:45 AM 48.4°F9.1°C 45.0°F7.2°C 88% 9.2 mph NW14.8 kmh NW 16.1 mph25.9 kmh 29.77 in1008.1 mb - 0.01 in0.3 mm 0.05 in1.3 mm
02:50 AM 48.2°F9.0°C 44.8°F7.1°C 88% 11.5 mph NW18.5 kmh NW 11.5 mph18.5 kmh 29.77 in1008.1 mb - 0.04 in1.0 mm 0.08 in2.0 mm
02:55 AM 47.8°F8.8°C 44.7°F7.1°C 89% 11.5 mph NNW18.5 kmh NNW 16.1 mph25.9 kmh 29.77 in1008.1 mb - 0.02 in0.5 mm 0.09 in2.3 mm
03:00 AM 47.4°F8.6°C 44.3°F6.8°C 89% 11.5 mph NW18.5 kmh NW 15.0 mph24.1 kmh 29.78 in1008.5 mb - 0.02 in0.5 mm 0.11 in2.8 mm
03:05 AM 47.1°F8.4°C 44.0°F6.7°C 89% 6.9 mph NNW11.1 kmh NNW 11.5 mph18.5 kmh 29.78 in1008.5 mb - 0.02 in0.5 mm 0.13 in3.3 mm
03:10 AM 46.9°F8.3°C 43.8°F6.6°C 89% 6.9 mph NW11.1 kmh NW 11.5 mph18.5 kmh 29.78 in1008.5 mb - 0.02 in0.5 mm 0.14 in3.6 mm
03:15 AM 46.7°F8.2°C 43.6°F6.4°C 89% 6.9 mph NW11.1 kmh NW 9.2 mph14.8 kmh 29.78 in1008.5 mb - 0.02 in0.5 mm 0.16 in4.1 mm
03:20 AM 46.5°F8.1°C 43.4°F6.3°C 89% 3.5 mph NNW5.6 kmh NNW 4.6 mph7.4 kmh 29.77 in1008.1 mb - 0.02 in0.5 mm 0.18 in4.6 mm
03:25 AM 46.4°F8.0°C 43.6°F6.4°C 90% 4.6 mph N7.4 kmh N 5.8 mph9.3 kmh 29.77 in1008.1 mb - 0.02 in0.5 mm 0.20 in5.1 mm
03:30 AM 46.3°F7.9°C 43.6°F6.4°C 90% 4.6 mph N7.4 kmh N 4.6 mph7.4 kmh 29.76 in1007.8 mb - 0.00 in0.0 mm 0.20 in5.1 mm
03:35 AM 46.3°F7.9°C 43.5°F6.4°C 90% Calm Calm -- 29.76 in1007.8 mb - 0.01 in0.3 mm 0.21 in5.3 mm
03:40 AM 46.3°F7.9°C 43.5°F6.4°C 90% 1.2 mph NNW1.9 kmh NNW 1.2 mph1.9 kmh 29.76 in1007.8 mb - 0.00 in0.0 mm 0.21 in5.3 mm
03:45 AM 46.2°F7.9°C 43.4°F6.3°C 90% 2.3 mph NW3.7 kmh NW 3.5 mph5.6 kmh 29.76 in1007.8 mb - 0.00 in0.0 mm 0.21 in5.3 mm
03:50 AM 46.2°F7.9°C 43.7°F6.5°C 91% Calm Calm 2.3 mph3.7 kmh 29.76 in1007.8 mb - 0.00 in0.0 mm 0.21 in5.3 mm
03:55 AM 46.2°F7.9°C 43.7°F6.5°C 91% 1.2 mph NW1.9 kmh NW 2.3 mph3.7 kmh 29.75 in1007.5 mb - 0.00 in0.0 mm 0.21 in5.3 mm
04:00 AM 46.1°F7.8°C 43.6°F6.4°C 91% 2.3 mph NW3.7 kmh NW 3.5 mph5.6 kmh 29.75 in1007.5 mb - 0.00 in0.0 mm 0.21 in5.3 mm
04:05 AM 46.1°F7.8°C 43.6°F6.4°C 91% 2.3 mph NW3.7 kmh NW 3.5 mph5.6 kmh 29.76 in1007.8 mb - 0.00 in0.0 mm 0.21 in5.3 mm
04:10 AM 46.2°F7.9°C 43.8°F6.6°C 91% 2.3 mph W3.7 kmh W 3.5 mph5.6 kmh 29.76 in1007.8 mb - 0.00 in0.0 mm 0.21 in5.3 mm
04:15 AM 46.2°F7.9°C 43.7°F6.5°C 91% 2.3 mph WSW3.7 kmh WSW 5.8 mph9.3 kmh 29.76 in1007.8 mb - 0.00 in0.0 mm 0.21 in5.3 mm
04:20 AM 46.1°F7.8°C 43.7°F6.5°C 91% 4.6 mph WSW7.4 kmh WSW 5.8 mph9.3 kmh 29.77 in1008.1 mb - 0.00 in0.0 mm 0.21 in5.3 mm
04:25 AM 46.0°F7.8°C 43.5°F6.4°C 91% 4.6 mph WSW7.4 kmh WSW 5.8 mph9.3 kmh 29.77 in1008.1 mb - 0.00 in0.0 mm 0.21 in5.3 mm
04:30 AM 45.8°F7.7°C 43.6°F6.4°C 92% 4.6 mph W7.4 kmh W 6.9 mph11.1 kmh 29.77 in1008.1 mb - 0.00 in0.0 mm 0.21 in5.3 mm
04:35 AM 45.7°F7.6°C 43.5°F6.4°C 92% 2.3 mph W3.7 kmh W 3.5 mph5.6 kmh 29.77 in1008.1 mb - 0.00 in0.0 mm 0.21 in5.3 mm
04:40 AM 45.8°F7.7°C 43.6°F6.4°C 92% 3.5 mph WSW5.6 kmh WSW 4.6 mph7.4 kmh 29.77 in1008.1 mb - 0.00 in0.0 mm 0.21 in5.3 mm
04:45 AM 45.8°F7.7°C 43.6°F6.4°C 92% 3.5 mph WSW5.6 kmh WSW 5.8 mph9.3 kmh 29.76 in1007.8 mb - 0.00 in0.0 mm 0.21 in5.3 mm
04:50 AM 45.8°F7.7°C 43.6°F6.4°C 92% 4.6 mph WSW7.4 kmh WSW 5.8 mph9.3 kmh 29.77 in1008.1 mb - 0.00 in0.0 mm 0.21 in5.3 mm
04:55 AM 45.7°F7.6°C 43.5°F6.4°C 92% 4.6 mph WSW7.4 kmh WSW 6.9 mph11.1 kmh 29.77 in1008.1 mb - 0.00 in0.0 mm 0.21 in5.3 mm
05:00 AM 45.6°F7.6°C 43.5°F6.4°C 92% 4.6 mph WSW7.4 kmh WSW 5.8 mph9.3 kmh 29.77 in1008.1 mb - 0.00 in0.0 mm 0.21 in5.3 mm
05:05 AM 45.6°F7.6°C 43.4°F6.3°C 92% 4.6 mph WSW7.4 kmh WSW 6.9 mph11.1 kmh 29.77 in1008.1 mb - 0.00 in0.0 mm 0.21 in5.3 mm
05:10 AM 45.6°F7.6°C 43.4°F6.3°C 92% 4.6 mph WSW7.4 kmh WSW 5.8 mph9.3 kmh 29.77 in1008.1 mb - 0.00 in0.0 mm 0.21 in5.3 mm
05:15 AM 45.5°F7.5°C 43.3°F6.3°C 92% 5.8 mph WSW9.3 kmh WSW 8.1 mph13.0 kmh 29.77 in1008.1 mb - 0.00 in0.0 mm 0.21 in5.3 mm
05:20 AM 45.5°F7.5°C 43.3°F6.3°C 92% 4.6 mph WSW7.4 kmh WSW 5.8 mph9.3 kmh 29.78 in1008.5 mb - 0.00 in0.0 mm 0.21 in5.3 mm
05:25 AM 45.5°F7.5°C 43.3°F6.3°C 92% 3.5 mph WSW5.6 kmh WSW 4.6 mph7.4 kmh 29.79 in1008.8 mb - 0.00 in0.0 mm 0.21 in5.3 mm
05:30 AM 45.5°F7.5°C 43.0°F6.1°C 91% 4.6 mph WSW7.4 kmh WSW 6.9 mph11.1 kmh 29.79 in1008.8 mb - 0.00 in0.0 mm 0.21 in5.3 mm
05:35 AM 45.6°F7.6°C 43.1°F6.2°C 91% 4.6 mph WSW7.4 kmh WSW 5.8 mph9.3 kmh 29.79 in1008.8 mb - 0.00 in0.0 mm 0.21 in5.3 mm
05:40 AM 45.6°F7.6°C 43.1°F6.2°C 91% 4.6 mph WSW7.4 kmh WSW 5.8 mph9.3 kmh 29.79 in1008.8 mb - 0.00 in0.0 mm 0.21 in5.3 mm
05:45 AM 45.8°F7.7°C 43.3°F6.3°C 91% 4.6 mph WSW7.4 kmh WSW 6.9 mph11.1 kmh 29.79 in1008.8 mb - 0.00 in0.0 mm 0.21 in5.3 mm
05:50 AM 45.8°F7.7°C 43.3°F6.3°C 91% 5.8 mph SW9.3 kmh SW 6.9 mph11.1 kmh 29.80 in1009.1 mb - 0.00 in0.0 mm 0.21 in5.3 mm
05:55 AM 45.9°F7.7°C 43.4°F6.3°C 91% 4.6 mph SW7.4 kmh SW 8.1 mph13.0 kmh 29.80 in1009.1 mb - 0.00 in0.0 mm 0.21 in5.3 mm
06:00 AM 45.9°F7.7°C 43.4°F6.3°C 91% 5.8 mph SW9.3 kmh SW 8.1 mph13.0 kmh 29.80 in1009.1 mb - 0.00 in0.0 mm 0.21 in5.3 mm
06:05 AM 45.9°F7.7°C 43.4°F6.3°C 91% 4.6 mph WSW7.4 kmh WSW 6.9 mph11.1 kmh 29.80 in1009.1 mb - 0.00 in0.0 mm 0.21 in5.3 mm
06:10 AM 45.9°F7.7°C 43.4°F6.3°C 91% 4.6 mph SW7.4 kmh SW 6.9 mph11.1 kmh 29.80 in1009.1 mb - 0.00 in0.0 mm 0.21 in5.3 mm
06:15 AM 45.8°F7.7°C 43.3°F6.3°C 91% 5.8 mph SW9.3 kmh SW 6.9 mph11.1 kmh 29.80 in1009.1 mb - 0.00 in0.0 mm 0.21 in5.3 mm
06:20 AM 45.7°F7.6°C 43.2°F6.2°C 91% 4.6 mph SW7.4 kmh SW 8.1 mph13.0 kmh 29.80 in1009.1 mb - 0.00 in0.0 mm 0.21 in5.3 mm
06:25 AM 45.7°F7.6°C 43.2°F6.2°C 91% 5.8 mph WSW9.3 kmh WSW 8.1 mph13.0 kmh 29.80 in1009.1 mb - 0.00 in0.0 mm 0.21 in5.3 mm
06:30 AM 45.5°F7.5°C 43.1°F6.2°C 91% 5.8 mph SW9.3 kmh SW 5.8 mph9.3 kmh 29.80 in1009.1 mb - 0.00 in0.0 mm 0.21 in5.3 mm
06:35 AM 45.5°F7.5°C 43.0°F6.1°C 91% 4.6 mph WSW7.4 kmh WSW 8.1 mph13.0 kmh 29.81 in1009.5 mb - 0.00 in0.0 mm 0.21 in5.3 mm
06:40 AM 45.4°F7.4°C 42.9°F6.1°C 91% 5.8 mph SW9.3 kmh SW 6.9 mph11.1 kmh 29.81 in1009.5 mb - 0.00 in0.0 mm 0.21 in5.3 mm
06:45 AM 45.4°F7.4°C 42.9°F6.1°C 91% 6.9 mph WSW11.1 kmh WSW 9.2 mph14.8 kmh 29.81 in1009.5 mb - 0.00 in0.0 mm 0.21 in5.3 mm
06:50 AM 45.4°F7.4°C 42.9°F6.1°C 91% 4.6 mph WSW7.4 kmh WSW 4.6 mph7.4 kmh 29.81 in1009.5 mb - 0.00 in0.0 mm 0.21 in5.3 mm
06:55 AM 45.5°F7.5°C 43.0°F6.1°C 91% 4.6 mph WSW7.4 kmh WSW 6.9 mph11.1 kmh 29.81 in1009.5 mb - 0.00 in0.0 mm 0.21 in5.3 mm
07:00 AM 45.5°F7.5°C 43.0°F6.1°C 91% 5.8 mph WSW9.3 kmh WSW 6.9 mph11.1 kmh 29.81 in1009.5 mb - 0.00 in0.0 mm 0.21 in5.3 mm
07:05 AM 45.5°F7.5°C 43.0°F6.1°C 91% 4.6 mph SW7.4 kmh SW 5.8 mph9.3 kmh 29.81 in1009.5 mb - 0.00 in0.0 mm 0.21 in5.3 mm
07:10 AM 45.4°F7.4°C 42.9°F6.1°C 91% 5.8 mph SW9.3 kmh SW 6.9 mph11.1 kmh 29.82 in1009.8 mb - 0.00 in0.0 mm 0.21 in5.3 mm
07:15 AM 45.4°F7.4°C 42.9°F6.1°C 91% 6.9 mph SW11.1 kmh SW 9.2 mph14.8 kmh 29.82 in1009.8 mb - 0.00 in0.0 mm 0.21 in5.3 mm
07:20 AM 45.3°F7.4°C 42.8°F6.0°C 91% 6.9 mph WSW11.1 kmh WSW 8.1 mph13.0 kmh 29.82 in1009.8 mb - 0.00 in0.0 mm 0.21 in5.3 mm
07:25 AM 45.2°F7.3°C 42.5°F5.8°C 90% 4.6 mph WSW7.4 kmh WSW 6.9 mph11.1 kmh 29.83 in1010.2 mb - 0.00 in0.0 mm 0.21 in5.3 mm
07:30 AM 45.2°F7.3°C 42.4°F5.8°C 90% 4.6 mph W7.4 kmh W 5.8 mph9.3 kmh 29.83 in1010.2 mb - 0.00 in0.0 mm 0.21 in5.3 mm
07:35 AM 45.1°F7.3°C 42.1°F5.6°C 89% 5.8 mph W9.3 kmh W 9.2 mph14.8 kmh 29.83 in1010.2 mb - 0.00 in0.0 mm 0.21 in5.3 mm
07:40 AM 45.1°F7.3°C 41.7°F5.4°C 88% 4.6 mph WSW7.4 kmh WSW 9.2 mph14.8 kmh 29.84 in1010.5 mb - 0.00 in0.0 mm 0.21 in5.3 mm
07:45 AM 45.0°F7.2°C 41.4°F5.2°C 87% 4.6 mph WSW7.4 kmh WSW 6.9 mph11.1 kmh 29.84 in1010.5 mb - 0.00 in0.0 mm 0.21 in5.3 mm
07:50 AM 45.1°F7.3°C 41.2°F5.1°C 86% 5.8 mph WSW9.3 kmh WSW 5.8 mph9.3 kmh 29.84 in1010.5 mb - 0.00 in0.0 mm 0.21 in5.3 mm
07:55 AM 45.2°F7.3°C 41.0°F5.0°C 85% 4.6 mph WSW7.4 kmh WSW 5.8 mph9.3 kmh 29.84 in1010.5 mb - 0.01 in0.3 mm 0.22 in5.6 mm
08:00 AM 45.4°F7.4°C 40.8°F4.9°C 84% 4.6 mph WSW7.4 kmh WSW 8.1 mph13.0 kmh 29.84 in1010.5 mb - 0.01 in0.3 mm 0.22 in5.6 mm
08:05 AM 45.5°F7.5°C 40.4°F4.7°C 82% 2.3 mph WSW3.7 kmh WSW 3.5 mph5.6 kmh 29.85 in1010.8 mb - 0.00 in0.0 mm 0.22 in5.6 mm
08:10 AM 45.7°F7.6°C 40.5°F4.7°C 82% 3.5 mph WSW5.6 kmh WSW 4.6 mph7.4 kmh 29.85 in1010.8 mb - 0.00 in0.0 mm 0.22 in5.6 mm
08:15 AM 46.0°F7.8°C 40.5°F4.7°C 81% 3.5 mph W5.6 kmh W 5.8 mph9.3 kmh 29.86 in1011.2 mb - 0.00 in0.0 mm 0.22 in5.6 mm
08:20 AM 46.3°F7.9°C 40.8°F4.9°C 81% 3.5 mph WSW5.6 kmh WSW 3.5 mph5.6 kmh 29.86 in1011.2 mb - 0.00 in0.0 mm 0.22 in5.6 mm
08:25 AM 46.8°F8.2°C 40.9°F4.9°C 80% 3.5 mph WSW5.6 kmh WSW 4.6 mph7.4 kmh 29.86 in1011.2 mb - 0.00 in0.0 mm 0.22 in5.6 mm
08:30 AM 47.2°F8.4°C 41.0°F5.0°C 79% 3.5 mph W5.6 kmh W 4.6 mph7.4 kmh 29.86 in1011.2 mb - 0.00 in0.0 mm 0.22 in5.6 mm
08:35 AM 47.6°F8.7°C 41.4°F5.2°C 79% 1.2 mph W1.9 kmh W 2.3 mph3.7 kmh 29.86 in1011.2 mb - 0.00 in0.0 mm 0.22 in5.6 mm
08:40 AM 47.9°F8.8°C 41.0°F5.0°C 77% 3.5 mph W5.6 kmh W 4.6 mph7.4 kmh 29.86 in1011.2 mb - 0.00 in0.0 mm 0.22 in5.6 mm
08:45 AM 48.3°F9.1°C 40.7°F4.8°C 75% 2.3 mph NW3.7 kmh NW 3.5 mph5.6 kmh 29.87 in1011.5 mb - 0.00 in0.0 mm 0.22 in5.6 mm
08:50 AM 48.6°F9.2°C 40.7°F4.8°C 74% 3.5 mph NW5.6 kmh NW 4.6 mph7.4 kmh 29.87 in1011.5 mb - 0.00 in0.0 mm 0.22 in5.6 mm
08:55 AM 49.1°F9.5°C 40.8°F4.9°C 73% 2.3 mph 3.7 kmh 3.5 mph5.6 kmh 29.87 in1011.5 mb - 0.00 in0.0 mm 0.22 in5.6 mm
09:00 AM 49.5°F9.7°C 40.5°F4.7°C 71% 2.3 mph N3.7 kmh N 3.5 mph5.6 kmh 29.88 in1011.9 mb - 0.00 in0.0 mm 0.22 in5.6 mm
09:05 AM 49.8°F9.9°C 40.8°F4.9°C 71% 4.6 mph NNE7.4 kmh NNE 4.6 mph7.4 kmh 29.88 in1011.9 mb - 0.00 in0.0 mm 0.22 in5.6 mm
09:10 AM 49.9°F9.9°C 40.9°F4.9°C 71% 2.3 mph N3.7 kmh N 3.5 mph5.6 kmh 29.88 in1011.9 mb - 0.00 in0.0 mm 0.22 in5.6 mm
09:15 AM 49.9°F9.9°C 40.9°F4.9°C 71% 2.3 mph N3.7 kmh N 3.5 mph5.6 kmh 29.88 in1011.9 mb - 0.00 in0.0 mm 0.22 in5.6 mm
09:20 AM 49.9°F9.9°C 40.9°F4.9°C 71% 2.3 mph N3.7 kmh N 3.5 mph5.6 kmh 29.88 in1011.9 mb - 0.00 in0.0 mm 0.22 in5.6 mm
09:25 AM 49.9°F9.9°C 41.2°F5.1°C 72% 2.3 mph NNW3.7 kmh NNW 3.5 mph5.6 kmh 29.88 in1011.9 mb - 0.00 in0.0 mm 0.22 in5.6 mm
09:30 AM 50.1°F10.1°C 41.1°F5.1°C 71% Calm Calm -- 29.88 in1011.9 mb - 0.00 in0.0 mm 0.22 in5.6 mm
09:35 AM 50.5°F10.3°C 41.9°F5.5°C 72% 2.3 mph N3.7 kmh N 3.5 mph5.6 kmh 29.88 in1011.9 mb - 0.00 in0.0 mm 0.22 in5.6 mm
09:40 AM 51.0°F10.6°C 42.0°F5.6°C 71% 1.2 mph N1.9 kmh N 3.5 mph5.6 kmh 29.89 in1012.2 mb - 0.00 in0.0 mm 0.22 in5.6 mm
09:45 AM 51.5°F10.8°C 42.1°F5.6°C 70% Calm Calm 2.3 mph3.7 kmh 29.89 in1012.2 mb - 0.00 in0.0 mm 0.22 in5.6 mm
09:50 AM 52.2°F11.2°C 42.0°F5.6°C 68% 1.2 mph N1.9 kmh N 3.5 mph5.6 kmh 29.89 in1012.2 mb - 0.00 in0.0 mm 0.22 in5.6 mm
09:55 AM 53.0°F11.7°C 42.3°F5.7°C 67% 1.2 mph NNW1.9 kmh NNW 2.3 mph3.7 kmh 29.89 in1012.2 mb - 0.00 in0.0 mm 0.22 in5.6 mm
10:00 AM 53.7°F12.1°C 42.6°F5.9°C 66% 1.2 mph N1.9 kmh N 2.3 mph3.7 kmh 29.89 in1012.2 mb - 0.00 in0.0 mm 0.22 in5.6 mm
10:05 AM 54.3°F12.4°C 42.4°F5.8°C 64% 1.2 mph SE1.9 kmh SE 2.3 mph3.7 kmh 29.89 in1012.2 mb - 0.00 in0.0 mm 0.22 in5.6 mm
10:10 AM 54.9°F12.7°C 42.1°F5.6°C 62% 1.2 mph SE1.9 kmh SE 3.5 mph5.6 kmh 29.89 in1012.2 mb - 0.00 in0.0 mm 0.22 in5.6 mm
10:15 AM 55.4°F13.0°C 42.2°F5.7°C 61% 3.5 mph S5.6 kmh S 3.5 mph5.6 kmh 29.89 in1012.2 mb - 0.00 in0.0 mm 0.22 in5.6 mm
10:20 AM 55.5°F13.1°C 41.0°F5.0°C 58% 2.3 mph SSE3.7 kmh SSE 3.5 mph5.6 kmh 29.90 in1012.5 mb - 0.00 in0.0 mm 0.22 in5.6 mm
10:25 AM 55.7°F13.2°C 41.1°F5.1°C 58% 2.3 mph S3.7 kmh S 3.5 mph5.6 kmh 29.90 in1012.5 mb - 0.00 in0.0 mm 0.22 in5.6 mm
10:30 AM 55.9°F13.3°C 41.3°F5.2°C 58% 2.3 mph SW3.7 kmh SW 3.5 mph5.6 kmh 29.90 in1012.5 mb - 0.00 in0.0 mm 0.22 in5.6 mm
10:35 AM 56.2°F13.4°C 41.2°F5.1°C 57% 2.3 mph S3.7 kmh S 4.6 mph7.4 kmh 29.90 in1012.5 mb - 0.00 in0.0 mm 0.22 in5.6 mm
10:40 AM 56.3°F13.5°C 40.8°F4.9°C 56% 2.3 mph E3.7 kmh E 3.5 mph5.6 kmh 29.90 in1012.5 mb - 0.00 in0.0 mm 0.22 in5.6 mm
10:45 AM 56.0°F13.3°C 40.5°F4.7°C 56% 1.2 mph ENE1.9 kmh ENE 3.5 mph5.6 kmh 29.90 in1012.5 mb - 0.00 in0.0 mm 0.22 in5.6 mm
10:50 AM 56.2°F13.4°C 39.8°F4.3°C 54% 3.5 mph S5.6 kmh S 4.6 mph7.4 kmh 29.90 in1012.5 mb - 0.00 in0.0 mm 0.22 in5.6 mm
10:55 AM 56.4°F13.6°C 38.5°F3.6°C 51% 2.3 mph SSW3.7 kmh SSW 3.5 mph5.6 kmh 29.90 in1012.5 mb - 0.00 in0.0 mm 0.22 in5.6 mm
11:00 AM 56.6°F13.7°C 38.2°F3.4°C 50% 3.5 mph SE5.6 kmh SE 4.6 mph7.4 kmh 29.90 in1012.5 mb - 0.00 in0.0 mm 0.22 in5.6 mm
11:05 AM 56.9°F13.8°C 38.9°F3.8°C 51% 3.5 mph SE5.6 kmh SE 4.6 mph7.4 kmh 29.90 in1012.5 mb - 0.00 in0.0 mm 0.22 in5.6 mm
11:10 AM 57.2°F14.0°C 39.2°F4.0°C 51% Calm Calm 1.2 mph1.9 kmh 29.90 in1012.5 mb - 0.00 in0.0 mm 0.22 in5.6 mm
11:15 AM 57.9°F14.4°C 38.8°F3.8°C 49% 2.3 mph SE3.7 kmh SE 4.6 mph7.4 kmh 29.90 in1012.5 mb - 0.00 in0.0 mm 0.22 in5.6 mm
11:20 AM 58.2°F14.6°C 38.6°F3.7°C 48% 3.5 mph S5.6 kmh S 6.9 mph11.1 kmh 29.90 in1012.5 mb - 0.00 in0.0 mm 0.22 in5.6 mm
11:25 AM 58.2°F14.6°C 38.0°F3.3°C 47% 3.5 mph S5.6 kmh S 4.6 mph7.4 kmh 29.90 in1012.5 mb - 0.00 in0.0 mm 0.22 in5.6 mm
11:30 AM 58.3°F14.6°C 38.7°F3.7°C 48% 1.2 mph SSE1.9 kmh SSE 2.3 mph3.7 kmh 29.90 in1012.5 mb - 0.00 in0.0 mm 0.22 in5.6 mm
11:35 AM 58.6°F14.8°C 37.9°F3.3°C 46% 3.5 mph SE5.6 kmh SE 3.5 mph5.6 kmh 29.90 in1012.5 mb - 0.00 in0.0 mm 0.22 in5.6 mm
11:40 AM 58.4°F14.7°C 37.2°F2.9°C 45% 3.5 mph SE5.6 kmh SE 3.5 mph5.6 kmh 29.90 in1012.5 mb - 0.00 in0.0 mm 0.22 in5.6 mm
11:45 AM 58.6°F14.8°C 37.9°F3.3°C 46% 2.3 mph E3.7 kmh E 4.6 mph7.4 kmh 29.90 in1012.5 mb - 0.00 in0.0 mm 0.22 in5.6 mm
11:50 AM 57.5°F14.2°C 36.4°F2.4°C 45% 2.3 mph SSE3.7 kmh SSE 3.5 mph5.6 kmh 29.90 in1012.5 mb - 0.00 in0.0 mm 0.22 in5.6 mm
11:55 AM 57.6°F14.2°C 37.5°F3.1°C 47% 2.3 mph ESE3.7 kmh ESE 3.5 mph5.6 kmh 29.90 in1012.5 mb - 0.00 in0.0 mm 0.22 in5.6 mm
12:00 PM 58.2°F14.6°C 38.0°F3.3°C 47% 1.2 mph ENE1.9 kmh ENE 2.3 mph3.7 kmh 29.91 in1012.9 mb - 0.00 in0.0 mm 0.22 in5.6 mm
12:05 PM 58.2°F14.6°C 36.4°F2.4°C 44% 2.3 mph NW3.7 kmh NW 3.5 mph5.6 kmh 29.90 in1012.5 mb - 0.00 in0.0 mm 0.22 in5.6 mm
12:10 PM 57.9°F14.4°C 35.5°F1.9°C 43% 2.3 mph NW3.7 kmh NW 5.8 mph9.3 kmh 29.91 in1012.9 mb - 0.00 in0.0 mm 0.22 in5.6 mm
12:15 PM 57.7°F14.3°C 34.1°F1.2°C 41% 3.5 mph N5.6 kmh N 6.9 mph11.1 kmh 29.91 in1012.9 mb - 0.00 in0.0 mm 0.22 in5.6 mm
12:20 PM 57.8°F14.3°C 33.6°F0.9°C 40% 1.2 mph SW1.9 kmh SW 2.3 mph3.7 kmh 29.91 in1012.9 mb - 0.00 in0.0 mm 0.22 in5.6 mm
12:25 PM 58.2°F14.6°C 34.0°F1.1°C 40% 1.2 mph S1.9 kmh S 2.3 mph3.7 kmh 29.91 in1012.9 mb - 0.00 in0.0 mm 0.22 in5.6 mm
12:30 PM 58.7°F14.8°C 33.2°F0.7°C 38% Calm Calm 1.2 mph1.9 kmh 29.91 in1012.9 mb - 0.00 in0.0 mm 0.22 in5.6 mm
12:35 PM 59.8°F15.4°C 37.2°F2.9°C 43% 3.5 mph SE5.6 kmh SE 4.6 mph7.4 kmh 29.91 in1012.9 mb - 0.00 in0.0 mm 0.22 in5.6 mm
12:40 PM 59.7°F15.4°C 37.7°F3.2°C 44% 4.6 mph SE7.4 kmh SE 4.6 mph7.4 kmh 29.91 in1012.9 mb - 0.00 in0.0 mm 0.22 in5.6 mm
12:45 PM 59.4°F15.2°C 36.3°F2.4°C 42% 2.3 mph SE3.7 kmh SE 9.2 mph14.8 kmh 29.91 in1012.9 mb - 0.00 in0.0 mm 0.22 in5.6 mm
12:50 PM 59.6°F15.3°C 37.6°F3.1°C 44% 4.6 mph SE7.4 kmh SE 6.9 mph11.1 kmh 29.91 in1012.9 mb - 0.00 in0.0 mm 0.22 in5.6 mm
12:55 PM 59.0°F15.0°C 35.3°F1.8°C 41% 4.6 mph S7.4 kmh S 5.8 mph9.3 kmh 29.91 in1012.9 mb - 0.00 in0.0 mm 0.22 in5.6 mm
01:00 PM 58.9°F14.9°C 36.4°F2.4°C 43% 3.5 mph SE5.6 kmh SE 5.8 mph9.3 kmh 29.91 in1012.9 mb - 0.00 in0.0 mm 0.22 in5.6 mm
01:05 PM 59.1°F15.1°C 36.6°F2.6°C 43% 4.6 mph ESE7.4 kmh ESE 9.2 mph14.8 kmh 29.91 in1012.9 mb - 0.00 in0.0 mm 0.22 in5.6 mm
01:10 PM 59.4°F15.2°C 36.3°F2.4°C 42% 4.6 mph SE7.4 kmh SE 4.6 mph7.4 kmh 29.91 in1012.9 mb - 0.00 in0.0 mm 0.22 in5.6 mm
01:15 PM 59.3°F15.2°C 35.6°F2.0°C 41% 3.5 mph S5.6 kmh S 6.9 mph11.1 kmh 29.90 in1012.5 mb - 0.00 in0.0 mm 0.22 in5.6 mm
01:20 PM 59.5°F15.3°C 33.2°F0.7°C 37% 4.6 mph SSE7.4 kmh SSE 4.6 mph7.4 kmh 29.90 in1012.5 mb - 0.00 in0.0 mm 0.22 in5.6 mm
01:25 PM 60.1°F15.6°C 32.3°F0.2°C 35% 3.5 mph E5.6 kmh E 4.6 mph7.4 kmh 29.90 in1012.5 mb - 0.00 in0.0 mm 0.22 in5.6 mm
01:30 PM 61.0°F16.1°C 32.4°F0.2°C 34% 4.6 mph E7.4 kmh E 8.1 mph13.0 kmh 29.90 in1012.5 mb - 0.00 in0.0 mm 0.22 in5.6 mm
01:35 PM 60.5°F15.8°C 31.2°F-0.4°C 33% 2.3 mph SE3.7 kmh SE 3.5 mph5.6 kmh 29.90 in1012.5 mb - 0.00 in0.0 mm 0.22 in5.6 mm
01:40 PM 60.1°F15.6°C 30.8°F-0.7°C 33% 3.5 mph WNW5.6 kmh WNW 3.5 mph5.6 kmh 29.90 in1012.5 mb - 0.00 in0.0 mm 0.22 in5.6 mm
01:45 PM 59.9°F15.5°C 31.4°F-0.3°C 34% 5.8 mph N9.3 kmh N 9.2 mph14.8 kmh 29.90 in1012.5 mb - 0.00 in0.0 mm 0.22 in5.6 mm
01:50 PM 59.7°F15.4°C 30.5°F-0.8°C 33% 2.3 mph WNW3.7 kmh WNW 3.5 mph5.6 kmh 29.90 in1012.5 mb - 0.00 in0.0 mm 0.22 in5.6 mm
01:55 PM 60.6°F15.9°C 31.3°F-0.4°C 33% 5.8 mph NE9.3 kmh NE 9.2 mph14.8 kmh 29.89 in1012.2 mb - 0.00 in0.0 mm 0.22 in5.6 mm
02:00 PM 60.2°F15.7°C 30.2°F-1.0°C 32% 2.3 mph NW3.7 kmh NW 3.5 mph5.6 kmh 29.89 in1012.2 mb - 0.00 in0.0 mm 0.22 in5.6 mm
02:05 PM 60.5°F15.8°C 31.2°F-0.4°C 33% 1.2 mph NE1.9 kmh NE 2.3 mph3.7 kmh 29.89 in1012.2 mb - 0.00 in0.0 mm 0.22 in5.6 mm
02:10 PM 61.5°F16.4°C 32.1°F0.1°C 33% 4.6 mph NE7.4 kmh NE 5.8 mph9.3 kmh 29.89 in1012.2 mb - 0.00 in0.0 mm 0.22 in5.6 mm
02:15 PM 60.9°F16.1°C 29.2°F-1.6°C 30% 2.3 mph NE3.7 kmh NE 2.3 mph3.7 kmh 29.89 in1012.2 mb - 0.00 in0.0 mm 0.22 in5.6 mm
02:20 PM 61.1°F16.2°C 33.2°F0.7°C 35% 2.3 mph ENE3.7 kmh ENE 3.5 mph5.6 kmh 29.89 in1012.2 mb - 0.00 in0.0 mm 0.22 in5.6 mm
02:25 PM 61.7°F16.5°C 31.5°F-0.3°C 32% 3.5 mph E5.6 kmh E 6.9 mph11.1 kmh 29.89 in1012.2 mb - 0.00 in0.0 mm 0.22 in5.6 mm
02:30 PM 61.2°F16.2°C 29.5°F-1.4°C 30% 4.6 mph E7.4 kmh E 8.1 mph13.0 kmh 29.89 in1012.2 mb - 0.00 in0.0 mm 0.22 in5.6 mm
02:35 PM 60.8°F16.0°C 29.2°F-1.6°C 30% 5.8 mph ESE9.3 kmh ESE 5.8 mph9.3 kmh 29.89 in1012.2 mb - 0.00 in0.0 mm 0.22 in5.6 mm
02:40 PM 60.7°F15.9°C 30.6°F-0.8°C 32% 3.5 mph NE5.6 kmh NE 3.5 mph5.6 kmh 29.89 in1012.2 mb - 0.00 in0.0 mm 0.22 in5.6 mm
02:45 PM 60.5°F15.8°C 29.7°F-1.3°C 31% 4.6 mph SSE7.4 kmh SSE 6.9 mph11.1 kmh 29.89 in1012.2 mb - 0.00 in0.0 mm 0.22 in5.6 mm
02:50 PM 60.5°F15.8°C 29.7°F-1.3°C 31% 5.8 mph SE9.3 kmh SE 8.1 mph13.0 kmh 29.89 in1012.2 mb - 0.00 in0.0 mm 0.22 in5.6 mm
02:55 PM 60.4°F15.8°C 28.8°F-1.8°C 30% 1.2 mph SSE1.9 kmh SSE 3.5 mph5.6 kmh 29.89 in1012.2 mb - 0.00 in0.0 mm 0.22 in5.6 mm
03:00 PM 60.7°F15.9°C 29.8°F-1.2°C 31% 4.6 mph ESE7.4 kmh ESE 6.9 mph11.1 kmh 29.89 in1012.2 mb - 0.00 in0.0 mm 0.22 in5.6 mm
03:05 PM 60.4°F15.8°C 29.6°F-1.3°C 31% 2.3 mph ESE3.7 kmh ESE 5.8 mph9.3 kmh 29.89 in1012.2 mb - 0.00 in0.0 mm 0.22 in5.6 mm
03:10 PM 60.8°F16.0°C 29.1°F-1.6°C 30% 4.6 mph ESE7.4 kmh ESE 6.9 mph11.1 kmh 29.89 in1012.2 mb - 0.00 in0.0 mm 0.22 in5.6 mm
03:15 PM 60.8°F16.0°C 28.3°F-2.1°C 29% 2.3 mph SE3.7 kmh SE 4.6 mph7.4 kmh 29.89 in1012.2 mb - 0.00 in0.0 mm 0.22 in5.6 mm
03:20 PM 61.1°F16.2°C 30.2°F-1.0°C 31% 4.6 mph SE7.4 kmh SE 6.9 mph11.1 kmh 29.89 in1012.2 mb - 0.00 in0.0 mm 0.22 in5.6 mm
03:25 PM 61.6°F16.4°C 29.8°F-1.2°C 30% 5.8 mph E9.3 kmh E 6.9 mph11.1 kmh 29.89 in1012.2 mb - 0.00 in0.0 mm 0.22 in5.6 mm
03:30 PM 61.4°F16.3°C 31.2°F-0.4°C 32% 1.2 mph SE1.9 kmh SE 4.6 mph7.4 kmh 29.89 in1012.2 mb - 0.00 in0.0 mm 0.22 in5.6 mm
03:35 PM 61.2°F16.2°C 32.6°F0.3°C 34% 8.1 mph SE13.0 kmh SE 9.2 mph14.8 kmh 29.89 in1012.2 mb - 0.00 in0.0 mm 0.22 in5.6 mm
03:40 PM 60.9°F16.1°C 32.3°F0.2°C 34% 5.8 mph ESE9.3 kmh ESE 9.2 mph14.8 kmh 29.89 in1012.2 mb - 0.00 in0.0 mm 0.22 in5.6 mm
03:45 PM 60.9°F16.1°C 33.8°F1.0°C 36% 5.8 mph SE9.3 kmh SE 6.9 mph11.1 kmh 29.88 in1011.9 mb - 0.00 in0.0 mm 0.22 in5.6 mm
03:50 PM 60.7°F15.9°C 33.5°F0.8°C 36% 4.6 mph SSE7.4 kmh SSE 6.9 mph11.1 kmh 29.88 in1011.9 mb - 0.00 in0.0 mm 0.22 in5.6 mm
03:55 PM 60.5°F15.8°C 33.4°F0.8°C 36% 8.1 mph SE13.0 kmh SE 10.4 mph16.7 kmh 29.89 in1012.2 mb - 0.00 in0.0 mm 0.22 in5.6 mm
04:00 PM 60.2°F15.7°C 32.4°F0.2°C 35% 4.6 mph S7.4 kmh S 5.8 mph9.3 kmh 29.88 in1011.9 mb - 0.00 in0.0 mm 0.22 in5.6 mm
04:05 PM 60.4°F15.8°C 33.3°F0.7°C 36% 5.8 mph E9.3 kmh E 8.1 mph13.0 kmh 29.89 in1012.2 mb - 0.00 in0.0 mm 0.22 in5.6 mm
04:10 PM 60.6°F15.9°C 32.8°F0.4°C 35% 5.8 mph ENE9.3 kmh ENE 8.1 mph13.0 kmh 29.89 in1012.2 mb - 0.00 in0.0 mm 0.22 in5.6 mm
04:15 PM 60.5°F15.8°C 33.4°F0.8°C 36% 5.8 mph E9.3 kmh E 6.9 mph11.1 kmh 29.89 in1012.2 mb - 0.00 in0.0 mm 0.22 in5.6 mm
04:20 PM 60.0°F15.6°C 33.0°F0.6°C 36% 4.6 mph SSE7.4 kmh SSE 9.2 mph14.8 kmh 29.89 in1012.2 mb - 0.00 in0.0 mm 0.22 in5.6 mm
04:25 PM 60.2°F15.7°C 33.8°F1.0°C 37% 5.8 mph SE9.3 kmh SE 8.1 mph13.0 kmh 29.89 in1012.2 mb - 0.00 in0.0 mm 0.22 in5.6 mm
04:30 PM 60.1°F15.6°C 34.4°F1.3°C 38% 4.6 mph SE7.4 kmh SE 6.9 mph11.1 kmh 29.89 in1012.2 mb - 0.00 in0.0 mm 0.22 in5.6 mm
04:35 PM 60.2°F15.7°C 34.5°F1.4°C 38% 5.8 mph SE9.3 kmh SE 6.9 mph11.1 kmh 29.90 in1012.5 mb - 0.00 in0.0 mm 0.22 in5.6 mm
04:40 PM 59.9°F15.5°C 34.9°F1.6°C 39% 5.8 mph ESE9.3 kmh ESE 9.2 mph14.8 kmh 29.90 in1012.5 mb - 0.00 in0.0 mm 0.22 in5.6 mm
04:45 PM 60.0°F15.6°C 34.3°F1.3°C 38% 8.1 mph ESE13.0 kmh ESE 11.5 mph18.5 kmh 29.90 in1012.5 mb - 0.00 in0.0 mm 0.22 in5.6 mm
04:50 PM 59.9°F15.5°C 34.9°F1.6°C 39% 8.1 mph ESE13.0 kmh ESE 11.5 mph18.5 kmh 29.90 in1012.5 mb - 0.00 in0.0 mm 0.22 in5.6 mm
04:55 PM 59.7°F15.4°C 37.2°F2.9°C 43% 4.6 mph SE7.4 kmh SE 5.8 mph9.3 kmh 29.90 in1012.5 mb - 0.00 in0.0 mm 0.22 in5.6 mm
05:00 PM 59.6°F15.3°C 39.3°F4.1°C 47% 6.9 mph ESE11.1 kmh ESE 11.5 mph18.5 kmh 29.91 in1012.9 mb - 0.00 in0.0 mm 0.22 in5.6 mm
05:05 PM 59.3°F15.2°C 39.1°F3.9°C 47% 6.9 mph SE11.1 kmh SE 9.2 mph14.8 kmh 29.91 in1012.9 mb - 0.00 in0.0 mm 0.22 in5.6 mm
05:10 PM 58.6°F14.8°C 39.5°F4.2°C 49% 3.5 mph SE5.6 kmh SE 4.6 mph7.4 kmh 29.91 in1012.9 mb - 0.00 in0.0 mm 0.22 in5.6 mm
05:15 PM 58.2°F14.6°C 39.7°F4.3°C 50% 6.9 mph SE11.1 kmh SE 11.5 mph18.5 kmh 29.91 in1012.9 mb - 0.00 in0.0 mm 0.22 in5.6 mm
05:20 PM 58.0°F14.4°C 39.5°F4.2°C 50% 4.6 mph ESE7.4 kmh ESE 8.1 mph13.0 kmh 29.92 in1013.2 mb - 0.00 in0.0 mm 0.22 in5.6 mm
05:25 PM 57.9°F14.4°C 38.8°F3.8°C 49% 4.6 mph SE7.4 kmh SE 6.9 mph11.1 kmh 29.92 in1013.2 mb - 0.00 in0.0 mm 0.22 in5.6 mm
05:30 PM 57.7°F14.3°C 38.7°F3.7°C 49% 8.1 mph SE13.0 kmh SE 11.5 mph18.5 kmh 29.92 in1013.2 mb - 0.00 in0.0 mm 0.22 in5.6 mm
05:35 PM 57.4°F14.1°C 38.3°F3.5°C 49% 5.8 mph ESE9.3 kmh ESE 11.5 mph18.5 kmh 29.92 in1013.2 mb - 0.00 in0.0 mm 0.22 in5.6 mm
05:40 PM 57.2°F14.0°C 38.2°F3.4°C 49% 6.9 mph SE11.1 kmh SE 10.4 mph16.7 kmh 29.93 in1013.5 mb - 0.00 in0.0 mm 0.22 in5.6 mm
05:45 PM 57.2°F14.0°C 37.6°F3.1°C 48% 5.8 mph SE9.3 kmh SE 6.9 mph11.1 kmh 29.93 in1013.5 mb - 0.00 in0.0 mm 0.22 in5.6 mm
05:50 PM 57.1°F13.9°C 38.1°F3.4°C 49% 3.5 mph SE5.6 kmh SE 8.1 mph13.0 kmh 29.93 in1013.5 mb - 0.00 in0.0 mm 0.22 in5.6 mm
05:55 PM 57.1°F13.9°C 38.1°F3.4°C 49% 4.6 mph ESE7.4 kmh ESE 6.9 mph11.1 kmh 29.94 in1013.9 mb - 0.00 in0.0 mm 0.22 in5.6 mm
06:00 PM 57.0°F13.9°C 37.5°F3.1°C 48% 3.5 mph SE5.6 kmh SE 6.9 mph11.1 kmh 29.94 in1013.9 mb - 0.00 in0.0 mm 0.22 in5.6 mm
06:05 PM 56.8°F13.8°C 37.8°F3.2°C 49% 4.6 mph SE7.4 kmh SE 9.2 mph14.8 kmh 29.94 in1013.9 mb - 0.00 in0.0 mm 0.22 in5.6 mm
06:10 PM 56.6°F13.7°C 37.7°F3.2°C 49% 4.6 mph SE7.4 kmh SE 8.1 mph13.0 kmh 29.94 in1013.9 mb - 0.00 in0.0 mm 0.22 in5.6 mm
06:15 PM 56.4°F13.6°C 37.5°F3.1°C 49% 3.5 mph SE5.6 kmh SE 5.8 mph9.3 kmh 29.94 in1013.9 mb - 0.00 in0.0 mm 0.22 in5.6 mm
06:20 PM 56.2°F13.4°C 37.8°F3.2°C 50% 3.5 mph SE5.6 kmh SE 3.5 mph5.6 kmh 29.95 in1014.2 mb - 0.00 in0.0 mm 0.22 in5.6 mm
06:25 PM 56.0°F13.3°C 38.1°F3.4°C 51% 2.3 mph SE3.7 kmh SE 3.5 mph5.6 kmh 29.95 in1014.2 mb - 0.00 in0.0 mm 0.22 in5.6 mm
06:30 PM 55.8°F13.2°C 37.9°F3.3°C 51% 2.3 mph SE3.7 kmh SE 3.5 mph5.6 kmh 29.95 in1014.2 mb - 0.00 in0.0 mm 0.22 in5.6 mm
06:35 PM 55.5°F13.1°C 38.7°F3.7°C 53% 8.1 mph SE13.0 kmh SE 13.8 mph22.2 kmh 29.96 in1014.6 mb - 0.00 in0.0 mm 0.22 in5.6 mm
06:40 PM 54.9°F12.7°C 41.3°F5.2°C 60% 9.2 mph SE14.8 kmh SE 12.7 mph20.4 kmh 29.96 in1014.6 mb - 0.00 in0.0 mm 0.22 in5.6 mm
06:45 PM 54.1°F12.3°C 42.6°F5.9°C 65% 9.2 mph SE14.8 kmh SE 16.1 mph25.9 kmh 29.96 in1014.6 mb - 0.00 in0.0 mm 0.22 in5.6 mm
06:50 PM 53.6°F12.0°C 42.5°F5.8°C 66% 9.2 mph SE14.8 kmh SE 16.1 mph25.9 kmh 29.97 in1014.9 mb - 0.00 in0.0 mm 0.22 in5.6 mm
06:55 PM 53.2°F11.8°C 42.5°F5.8°C 67% 8.1 mph SE13.0 kmh SE 10.4 mph16.7 kmh 29.97 in1014.9 mb - 0.00 in0.0 mm 0.22 in5.6 mm
07:00 PM 52.9°F11.6°C 43.0°F6.1°C 69% 9.2 mph SE14.8 kmh SE 13.8 mph22.2 kmh 29.98 in1015.2 mb - 0.00 in0.0 mm 0.22 in5.6 mm
07:05 PM 52.6°F11.4°C 42.7°F5.9°C 69% 6.9 mph SE11.1 kmh SE 9.2 mph14.8 kmh 29.99 in1015.6 mb - 0.00 in0.0 mm 0.22 in5.6 mm
07:10 PM 52.3°F11.3°C 42.8°F6.0°C 70% 11.5 mph SE18.5 kmh SE 13.8 mph22.2 kmh 29.99 in1015.6 mb - 0.00 in0.0 mm 0.22 in5.6 mm
07:15 PM 51.9°F11.1°C 43.2°F6.2°C 72% 8.1 mph SE13.0 kmh SE 13.8 mph22.2 kmh 30.00 in1015.9 mb - 0.00 in0.0 mm 0.22 in5.6 mm
07:20 PM 51.6°F10.9°C 42.9°F6.1°C 72% 5.8 mph SE9.3 kmh SE 9.2 mph14.8 kmh 30.00 in1015.9 mb - 0.00 in0.0 mm 0.22 in5.6 mm
07:25 PM 51.4°F10.8°C 43.0°F6.1°C 73% 4.6 mph SE7.4 kmh SE 9.2 mph14.8 kmh 30.01 in1016.3 mb - 0.00 in0.0 mm 0.22 in5.6 mm
07:30 PM 51.2°F10.7°C 42.5°F5.8°C 72% 5.8 mph ESE9.3 kmh ESE 5.8 mph9.3 kmh 30.01 in1016.3 mb - 0.00 in0.0 mm 0.22 in5.6 mm
07:35 PM 50.9°F10.5°C 42.2°F5.7°C 72% 8.1 mph E13.0 kmh E 10.4 mph16.7 kmh 30.02 in1016.6 mb - 0.00 in0.0 mm 0.22 in5.6 mm
07:40 PM 50.7°F10.4°C 42.0°F5.6°C 72% 5.8 mph E9.3 kmh E 11.5 mph18.5 kmh 30.02 in1016.6 mb - 0.00 in0.0 mm 0.22 in5.6 mm
07:45 PM 50.4°F10.2°C 41.7°F5.4°C 72% 6.9 mph SE11.1 kmh SE 11.5 mph18.5 kmh 30.03 in1016.9 mb - 0.00 in0.0 mm 0.22 in5.6 mm
07:50 PM 50.2°F10.1°C 41.5°F5.3°C 72% 9.2 mph SE14.8 kmh SE 15.0 mph24.1 kmh 30.03 in1016.9 mb - 0.00 in0.0 mm 0.22 in5.6 mm
07:55 PM 49.9°F9.9°C 41.2°F5.1°C 72% 4.6 mph SE7.4 kmh SE 9.2 mph14.8 kmh 30.03 in1016.9 mb - 0.00 in0.0 mm 0.22 in5.6 mm
08:00 PM 49.8°F9.9°C 41.1°F5.1°C 72% 3.5 mph ESE5.6 kmh ESE 4.6 mph7.4 kmh 30.04 in1017.3 mb - 0.00 in0.0 mm 0.22 in5.6 mm
08:05 PM 49.7°F9.8°C 41.0°F5.0°C 72% 5.8 mph SE9.3 kmh SE 9.2 mph14.8 kmh 30.04 in1017.3 mb - 0.00 in0.0 mm 0.22 in5.6 mm
08:10 PM 49.5°F9.7°C 40.8°F4.9°C 72% 5.8 mph SSE9.3 kmh SSE 6.9 mph11.1 kmh 30.04 in1017.3 mb - 0.00 in0.0 mm 0.22 in5.6 mm
08:15 PM 49.3°F9.6°C 40.7°F4.8°C 72% 5.8 mph SSE9.3 kmh SSE 5.8 mph9.3 kmh 30.05 in1017.6 mb - 0.00 in0.0 mm 0.22 in5.6 mm
08:20 PM 49.2°F9.6°C 40.9°F4.9°C 73% 5.8 mph ESE9.3 kmh ESE 9.2 mph14.8 kmh 30.05 in1017.6 mb - 0.00 in0.0 mm 0.22 in5.6 mm
08:25 PM 49.1°F9.5°C 41.2°F5.1°C 74% 4.6 mph SE7.4 kmh SE 3.5 mph5.6 kmh 30.05 in1017.6 mb - 0.01 in0.3 mm 0.23 in5.8 mm
08:30 PM 48.8°F9.3°C 41.2°F5.1°C 75% 6.9 mph SE11.1 kmh SE 8.1 mph13.0 kmh 30.05 in1017.6 mb - 0.03 in0.8 mm 0.25 in6.4 mm
08:35 PM 48.3°F9.1°C 41.4°F5.2°C 77% 6.9 mph SE11.1 kmh SE 10.4 mph16.7 kmh 30.05 in1017.6 mb - 0.02 in0.5 mm 0.27 in6.9 mm
08:40 PM 47.9°F8.8°C 41.0°F5.0°C 77% 6.9 mph SE11.1 kmh SE 10.4 mph16.7 kmh 30.05 in1017.6 mb - 0.01 in0.3 mm 0.28 in7.1 mm
08:45 PM 47.7°F8.7°C 40.8°F4.9°C 77% 6.9 mph SSE11.1 kmh SSE 11.5 mph18.5 kmh 30.05 in1017.6 mb - 0.00 in0.0 mm 0.28 in7.1 mm
08:50 PM 47.6°F8.7°C 40.7°F4.8°C 77% 8.1 mph SSE13.0 kmh SSE 11.5 mph18.5 kmh 30.05 in1017.6 mb - 0.00 in0.0 mm 0.28 in7.1 mm
08:55 PM 47.6°F8.7°C 40.4°F4.7°C 76% 10.4 mph SE16.7 kmh SE 16.1 mph25.9 kmh 30.05 in1017.6 mb - 0.00 in0.0 mm 0.28 in7.1 mm
09:00 PM 47.6°F8.7°C 40.4°F4.7°C 76% 5.8 mph SE9.3 kmh SE 8.1 mph13.0 kmh 30.06 in1017.9 mb - 0.00 in0.0 mm 0.28 in7.1 mm
09:05 PM 47.5°F8.6°C 40.0°F4.4°C 75% 9.2 mph SE14.8 kmh SE 11.5 mph18.5 kmh 30.06 in1017.9 mb - 0.00 in0.0 mm 0.28 in7.1 mm
09:10 PM 47.4°F8.6°C 40.2°F4.6°C 76% 6.9 mph ESE11.1 kmh ESE 10.4 mph16.7 kmh 30.07 in1018.3 mb - 0.00 in0.0 mm 0.28 in7.1 mm
09:15 PM 47.3°F8.5°C 40.5°F4.7°C 77% 2.3 mph E3.7 kmh E 4.6 mph7.4 kmh 30.07 in1018.3 mb - 0.00 in0.0 mm 0.28 in7.1 mm
09:20 PM 47.2°F8.4°C 40.7°F4.8°C 78% 1.2 mph ESE1.9 kmh ESE 4.6 mph7.4 kmh 30.07 in1018.3 mb - 0.00 in0.0 mm 0.28 in7.1 mm
09:25 PM 47.1°F8.4°C 40.6°F4.8°C 78% 3.5 mph ESE5.6 kmh ESE 3.5 mph5.6 kmh 30.07 in1018.3 mb - 0.00 in0.0 mm 0.28 in7.1 mm
09:30 PM 47.1°F8.4°C 40.6°F4.8°C 78% 2.3 mph S3.7 kmh S 3.5 mph5.6 kmh 30.07 in1018.3 mb - 0.00 in0.0 mm 0.28 in7.1 mm
09:35 PM 47.0°F8.3°C 40.5°F4.7°C 78% 2.3 mph SSW3.7 kmh SSW 3.5 mph5.6 kmh 30.07 in1018.3 mb - 0.00 in0.0 mm 0.28 in7.1 mm
09:40 PM 47.0°F8.3°C 40.8°F4.9°C 79% 4.6 mph SE7.4 kmh SE 6.9 mph11.1 kmh 30.07 in1018.3 mb - 0.00 in0.0 mm 0.28 in7.1 mm
09:45 PM 46.8°F8.2°C 40.6°F4.8°C 79% 5.8 mph SE9.3 kmh SE 5.8 mph9.3 kmh 30.07 in1018.3 mb - 0.00 in0.0 mm 0.28 in7.1 mm
09:50 PM 46.7°F8.2°C 40.5°F4.7°C 79% 3.5 mph SE5.6 kmh SE 5.8 mph9.3 kmh 30.07 in1018.3 mb - 0.00 in0.0 mm 0.28 in7.1 mm
09:55 PM 46.7°F8.2°C 40.5°F4.7°C 79% 3.5 mph SSE5.6 kmh SSE 5.8 mph9.3 kmh 30.07 in1018.3 mb - 0.00 in0.0 mm 0.28 in7.1 mm
10:00 PM 46.7°F8.2°C 40.5°F4.7°C 79% 4.6 mph SE7.4 kmh SE 6.9 mph11.1 kmh 30.07 in1018.3 mb - 0.00 in0.0 mm 0.28 in7.1 mm
10:05 PM 46.7°F8.2°C 40.5°F4.7°C 79% 3.5 mph SE5.6 kmh SE 6.9 mph11.1 kmh 30.08 in1018.6 mb - 0.00 in0.0 mm 0.28 in7.1 mm
10:10 PM 46.6°F8.1°C 40.4°F4.7°C 79% 4.6 mph SE7.4 kmh SE 6.9 mph11.1 kmh 30.08 in1018.6 mb - 0.00 in0.0 mm 0.28 in7.1 mm
10:15 PM 46.6°F8.1°C 40.1°F4.5°C 78% 3.5 mph SE5.6 kmh SE 3.5 mph5.6 kmh 30.08 in1018.6 mb - 0.00 in0.0 mm 0.28 in7.1 mm
10:20 PM 46.6°F8.1°C 40.1°F4.5°C 78% 3.5 mph SE5.6 kmh SE 4.6 mph7.4 kmh 30.09 in1019.0 mb - 0.00 in0.0 mm 0.28 in7.1 mm
10:25 PM 46.6°F8.1°C 40.1°F4.5°C 78% 2.3 mph ESE3.7 kmh ESE 3.5 mph5.6 kmh 30.09 in1019.0 mb - 0.00 in0.0 mm 0.28 in7.1 mm
10:30 PM 46.5°F8.1°C 40.3°F4.6°C 79% 3.5 mph SE5.6 kmh SE 4.6 mph7.4 kmh 30.09 in1019.0 mb - 0.00 in0.0 mm 0.28 in7.1 mm
10:35 PM 46.5°F8.1°C 40.3°F4.6°C 79% 4.6 mph SE7.4 kmh SE 8.1 mph13.0 kmh 30.09 in1019.0 mb - 0.00 in0.0 mm 0.28 in7.1 mm
10:40 PM 46.4°F8.0°C 39.9°F4.4°C 78% 4.6 mph SE7.4 kmh SE 8.1 mph13.0 kmh 30.09 in1019.0 mb - 0.00 in0.0 mm 0.28 in7.1 mm
10:45 PM 46.4°F8.0°C 39.9°F4.4°C 78% 4.6 mph SE7.4 kmh SE 6.9 mph11.1 kmh 30.09 in1019.0 mb - 0.00 in0.0 mm 0.28 in7.1 mm
10:50 PM 46.4°F8.0°C 39.6°F4.2°C 77% 3.5 mph ESE5.6 kmh ESE 5.8 mph9.3 kmh 30.09 in1019.0 mb - 0.00 in0.0 mm 0.28 in7.1 mm
10:55 PM 46.3°F7.9°C 39.8°F4.3°C 78% 3.5 mph ESE5.6 kmh ESE 4.6 mph7.4 kmh 30.09 in1019.0 mb - 0.00 in0.0 mm 0.28 in7.1 mm
11:00 PM 46.3°F7.9°C 39.8°F4.3°C 78% 1.2 mph SE1.9 kmh SE 3.5 mph5.6 kmh 30.09 in1019.0 mb - 0.00 in0.0 mm 0.28 in7.1 mm
11:05 PM 46.2°F7.9°C 39.7°F4.3°C 78% 2.3 mph NNE3.7 kmh NNE 3.5 mph5.6 kmh 30.10 in1019.3 mb - 0.00 in0.0 mm 0.28 in7.1 mm
11:10 PM 46.1°F7.8°C 39.6°F4.2°C 78% 3.5 mph NNW5.6 kmh NNW 3.5 mph5.6 kmh 30.11 in1019.6 mb - 0.00 in0.0 mm 0.28 in7.1 mm
11:15 PM 46.0°F7.8°C 40.2°F4.6°C 80% 3.5 mph N5.6 kmh N 3.5 mph5.6 kmh 30.11 in1019.6 mb - 0.00 in0.0 mm 0.28 in7.1 mm
11:20 PM 45.9°F7.7°C 40.4°F4.7°C 81% 2.3 mph N3.7 kmh N 3.5 mph5.6 kmh 30.11 in1019.6 mb - 0.00 in0.0 mm 0.28 in7.1 mm
11:25 PM 45.7°F7.6°C 40.2°F4.6°C 81% 2.3 mph N3.7 kmh N 3.5 mph5.6 kmh 30.11 in1019.6 mb - 0.00 in0.0 mm 0.28 in7.1 mm
11:30 PM 45.6°F7.6°C 40.1°F4.5°C 81% 1.2 mph N1.9 kmh N 2.3 mph3.7 kmh 30.11 in1019.6 mb - 0.00 in0.0 mm 0.28 in7.1 mm
11:35 PM 45.4°F7.4°C 39.9°F4.4°C 81% 2.3 mph N3.7 kmh N 2.3 mph3.7 kmh 30.11 in1019.6 mb - 0.00 in0.0 mm 0.28 in7.1 mm
11:40 PM 45.3°F7.4°C 39.8°F4.3°C 81% 1.2 mph N1.9 kmh N 1.2 mph1.9 kmh 30.11 in1019.6 mb - 0.00 in0.0 mm 0.28 in7.1 mm
11:45 PM 45.2°F7.3°C 40.0°F4.4°C 82% Calm Calm -- 30.11 in1019.6 mb - 0.00 in0.0 mm 0.28 in7.1 mm
11:50 PM 45.2°F7.3°C 40.0°F4.4°C 82% Calm Calm 2.3 mph3.7 kmh 30.11 in1019.6 mb - 0.00 in0.0 mm 0.28 in7.1 mm
11:55 PM 45.1°F7.3°C 39.9°F4.4°C 82% Calm Calm -- 30.11 in1019.6 mb - 0.00 in0.0 mm 0.28 in7.1 mm